الصفحة الرئيسية
METAR-TAF:

METAR-TAF

مطار :

سينوب, تركيا

دائرة عرض: 42-00-57N, خط طول: 035-03-59E, ارتفاع: 7 متر

مراقبة الطقس الحالي

تاريخ ووقت الإصدار 7ساعات و 25 دقيقة قبل الساعة 07:50UTC
ريح 13 عقدة من الغرب/الشمال الغربي
درجة الحرارة 25°درجة مئوية
الرطوبة 57%
ضغط 1012 hPa
الرؤية 10 كم أو أكثر
غيوم قليلة على ارتفاع 2700 قدم

METAR: LTCM 160750Z 29013KT 9999 FEW027 25/16 Q1012

زمن: 18:15 (15:15 UTC)

توقعات

تاريخ ووقت الإصدار 1ساعة و 35 دقيقة قبل الساعة 13:40UTC
التوقعات صالحة من16 الساعة 15 UTC إلى 16 الساعة 24 UTC
ريح 14 عقدة من الغرب/الشمال الغربي
الرؤية: 8000 متر
غيوم متفرقة على ارتفاع 1000 قدم
غيوم مفككة على ارتفاع 2500 قدم
أصبح
من 16 الساعة 16 UTC إلى 16 الساعة 19 UTC
ريح 8 عقدة من الجنوب الغربي

TAF: LTCM 161340Z 1615/1624 29014KT 8000 SCT010 BKN025 BECMG 1616/1619 23008KT

أرصاد الطقس والتوقعات من أكثر من 4000 مطار (تقارير الطقس للمطار METAR والتنبؤ بالطقس بالمطارTAF).

المحطات المتاحة هي النقط الصفراء والحمراء على الخريطة.

حرك المؤشر فوق النقطة لمعرفة اسم المحطة.

ثم انقر لمعرفة أرصاد وتوقعات الطقس.

لتغيير الخارطة: اضغط على الأزرار الخضراء مع رمز الصليب الأسود للتكبير. على الزر الأخضر مع شرطة للتصغير، أو على الأسهم الخضراء للخرائط المجاورة.


METAR-TAF: